createdAt,value
2023-03-05T00:00:23.444Z,2.27
2023-03-05T00:02:53.991Z,1.93
2023-03-05T00:05:24.287Z,1.77
2023-03-05T00:07:54.534Z,1.70
2023-03-05T00:10:22.281Z,1.67
2023-03-05T00:12:53.247Z,1.90
2023-03-05T00:15:21.935Z,1.70
2023-03-05T00:17:49.817Z,1.50
2023-03-05T00:20:21.972Z,1.87
2023-03-05T00:22:50.256Z,1.83
2023-03-05T00:25:20.423Z,1.90
2023-03-05T00:27:49.887Z,1.90
2023-03-05T00:30:20.633Z,1.30
2023-03-05T00:32:51.724Z,1.57
2023-03-05T00:35:20.394Z,1.60
2023-03-05T00:37:57.707Z,1.67
2023-03-05T00:40:30.922Z,4.07
2023-03-05T00:43:01.000Z,2.07
2023-03-05T00:45:31.935Z,1.13
2023-03-05T00:48:00.164Z,2.13
2023-03-05T00:50:28.534Z,2.27
2023-03-05T00:52:56.780Z,1.30
2023-03-05T00:55:24.893Z,1.97
2023-03-05T00:57:53.458Z,1.57
2023-03-05T01:00:21.868Z,1.90
2023-03-05T01:02:50.412Z,2.73
2023-03-05T01:05:21.765Z,1.77
2023-03-05T01:07:53.913Z,1.37
2023-03-05T01:10:23.602Z,2.00
2023-03-05T01:12:54.645Z,1.37
2023-03-05T01:15:24.394Z,1.90
2023-03-05T01:17:54.578Z,1.77
2023-03-05T01:20:23.829Z,1.90
2023-03-05T01:22:51.746Z,2.40
2023-03-05T01:25:20.470Z,1.97
2023-03-05T01:27:48.404Z,1.83
2023-03-05T01:30:22.017Z,1.30
2023-03-05T01:32:50.523Z,1.33
2023-03-05T01:35:22.406Z,1.27
2023-03-05T01:37:52.255Z,1.70
2023-03-05T01:40:28.318Z,1.67
2023-03-05T01:43:11.454Z,1.73
2023-03-05T01:46:30.547Z,1.40
2023-03-05T01:49:06.174Z,1.27
2023-03-05T01:51:48.653Z,1.83
2023-03-05T01:54:28.909Z,1.67
2023-03-05T01:57:06.707Z,1.73
2023-03-05T01:59:38.051Z,1.40
2023-03-05T02:02:09.328Z,1.50
2023-03-05T02:04:51.753Z,1.67
2023-03-05T02:07:22.165Z,1.30
2023-03-05T02:09:50.364Z,1.43
2023-03-05T02:12:19.321Z,1.37
2023-03-05T02:15:02.238Z,1.63
2023-03-05T02:17:30.854Z,1.40
2023-03-05T02:20:27.752Z,1.40
2023-03-05T02:22:56.729Z,1.70
2023-03-05T02:25:32.084Z,1.77
2023-03-05T02:28:25.398Z,1.57
2023-03-05T02:30:53.469Z,1.43
2023-03-05T02:33:24.462Z,1.67
2023-03-05T02:35:52.771Z,1.00
2023-03-05T02:38:21.535Z,2.00
2023-03-05T02:40:50.459Z,1.10
2023-03-05T02:43:19.824Z,1.23
2023-03-05T02:45:47.994Z,2.07
2023-03-05T02:48:16.354Z,1.77
2023-03-05T02:50:47.529Z,1.60
2023-03-05T02:53:20.475Z,1.80
2023-03-05T02:55:52.780Z,1.67
2023-03-05T02:58:20.712Z,1.57
2023-03-05T03:00:49.416Z,1.07
2023-03-05T03:03:17.356Z,1.53
2023-03-05T03:05:45.233Z,1.43
2023-03-05T03:08:13.074Z,1.37
2023-03-05T03:10:41.298Z,1.87
2023-03-05T03:13:12.240Z,1.23
2023-03-05T03:15:43.945Z,1.10
2023-03-05T03:18:15.472Z,1.33
2023-03-05T03:20:46.040Z,1.37
2023-03-05T03:23:14.289Z,1.57
2023-03-05T03:25:42.536Z,1.30
2023-03-05T03:28:10.787Z,1.50
2023-03-05T03:30:38.836Z,1.00
2023-03-05T03:33:09.873Z,1.57
2023-03-05T03:35:39.570Z,0.97
2023-03-05T03:38:07.618Z,1.20
2023-03-05T03:40:37.339Z,1.47
2023-03-05T03:43:05.256Z,1.60
2023-03-05T03:45:33.176Z,1.47
2023-03-05T03:48:01.167Z,1.10
2023-03-05T03:50:29.050Z,1.10
2023-03-05T03:53:03.126Z,1.50
2023-03-05T03:55:31.185Z,1.57
2023-03-05T03:57:59.094Z,1.17
2023-03-05T04:00:29.468Z,1.97
2023-03-05T04:02:57.367Z,1.17
2023-03-05T04:05:25.318Z,1.63
2023-03-05T04:07:53.409Z,1.07
2023-03-05T04:10:23.605Z,1.23
2023-03-05T04:12:53.528Z,1.73
2023-03-05T04:15:24.100Z,1.13
2023-03-05T04:17:52.097Z,1.40
2023-03-05T04:20:20.298Z,1.70
2023-03-05T04:22:48.381Z,1.37
2023-03-05T04:25:19.823Z,1.73
2023-03-05T04:27:51.922Z,2.00
2023-03-05T04:30:19.952Z,2.07
2023-03-05T04:32:53.136Z,1.37
2023-03-05T04:35:30.689Z,1.50
2023-03-05T04:38:00.972Z,1.27
2023-03-05T04:40:29.148Z,1.90
2023-03-05T04:43:03.769Z,1.90
2023-03-05T04:45:32.246Z,1.53
2023-03-05T04:48:03.157Z,1.80
2023-03-05T04:50:31.246Z,1.37
2023-03-05T04:53:00.578Z,1.33
2023-03-05T04:55:28.642Z,1.67
2023-03-05T04:57:56.458Z,1.67
2023-03-05T05:00:25.206Z,1.10
2023-03-05T05:02:54.016Z,1.23
2023-03-05T05:05:32.361Z,1.20
2023-03-05T05:08:00.665Z,1.33
2023-03-05T05:10:33.644Z,1.53
2023-03-05T05:13:04.375Z,1.20
2023-03-05T05:15:32.408Z,0.80
2023-03-05T05:18:02.860Z,1.60
2023-03-05T05:20:33.396Z,1.20
2023-03-05T05:23:02.809Z,0.90
2023-03-05T05:25:34.038Z,1.43
2023-03-05T05:28:02.129Z,1.20
2023-03-05T05:30:32.957Z,1.17
2023-03-05T05:33:06.345Z,2.37
2023-03-05T05:35:44.672Z,1.07
2023-03-05T05:38:13.079Z,0.80
2023-03-05T05:40:41.302Z,0.87
2023-03-05T05:43:11.507Z,0.80
2023-03-05T05:45:51.905Z,0.90
2023-03-05T05:48:24.033Z,0.97
2023-03-05T05:50:52.312Z,0.93
2023-03-05T05:53:23.519Z,0.50
2023-03-05T05:55:52.790Z,0.77
2023-03-05T05:58:23.068Z,1.00
2023-03-05T06:00:53.608Z,0.60
2023-03-05T06:03:21.686Z,1.10
2023-03-05T06:05:50.825Z,0.70
2023-03-05T06:08:19.606Z,1.30
2023-03-05T06:10:56.237Z,0.67
2023-03-05T06:13:24.449Z,0.97
2023-03-05T06:16:16.569Z,0.90
2023-03-05T06:18:47.787Z,0.90
2023-03-05T06:21:26.427Z,0.60
2023-03-05T06:24:03.181Z,0.63
2023-03-05T06:26:32.066Z,0.73
2023-03-05T06:29:01.194Z,0.90
2023-03-05T06:31:37.251Z,0.70
2023-03-05T06:34:05.364Z,0.70
2023-03-05T06:36:34.526Z,0.67
2023-03-05T06:39:03.794Z,0.57
2023-03-05T06:41:33.049Z,0.90
2023-03-05T06:44:03.232Z,0.60
2023-03-05T06:46:39.730Z,0.50
2023-03-05T06:49:09.501Z,1.23
2023-03-05T06:51:40.438Z,1.23
2023-03-05T06:54:13.534Z,1.00
2023-03-05T06:56:45.195Z,1.17
2023-03-05T06:59:15.707Z,1.33
2023-03-05T07:01:46.963Z,0.73
2023-03-05T07:04:17.323Z,0.90
2023-03-05T07:06:45.549Z,0.80
2023-03-05T07:09:18.254Z,1.00
2023-03-05T07:11:46.275Z,1.20
2023-03-05T07:14:13.994Z,0.80
2023-03-05T07:16:41.995Z,0.93
2023-03-05T07:19:11.291Z,1.13
2023-03-05T07:21:40.144Z,0.80
2023-03-05T07:24:08.870Z,1.20
2023-03-05T07:26:37.107Z,1.00
2023-03-05T07:29:07.939Z,1.13
2023-03-05T07:31:35.968Z,1.03
2023-03-05T07:34:04.090Z,1.07
2023-03-05T07:36:34.810Z,0.73
2023-03-05T07:39:05.104Z,1.50
2023-03-05T07:41:39.649Z,0.97
2023-03-05T07:44:07.794Z,0.77
2023-03-05T07:46:46.591Z,1.10
2023-03-05T07:49:14.608Z,1.33
2023-03-05T07:51:42.442Z,2.10
2023-03-05T07:54:13.245Z,1.10
2023-03-05T07:56:57.561Z,2.20
2023-03-05T07:59:25.429Z,1.50
2023-03-05T08:02:04.538Z,1.60
2023-03-05T08:04:43.317Z,0.97
2023-03-05T08:07:16.612Z,1.70
2023-03-05T08:09:48.047Z,0.93
2023-03-05T08:12:15.900Z,1.40
2023-03-05T08:15:34.436Z,1.40
2023-03-05T08:19:33.302Z,1.90
2023-03-05T08:22:45.730Z,1.87
2023-03-05T08:25:19.922Z,1.80
2023-03-05T08:27:51.945Z,1.87
2023-03-05T08:30:22.457Z,2.50
2023-03-05T08:32:50.485Z,1.60
2023-03-05T08:35:18.594Z,2.07
2023-03-05T08:37:46.818Z,2.07
2023-03-05T08:40:23.688Z,2.17
2023-03-05T08:42:53.992Z,3.00
2023-03-05T08:45:24.281Z,2.70
2023-03-05T08:47:52.311Z,2.40
2023-03-05T08:50:22.922Z,2.33
2023-03-05T08:53:02.585Z,2.30
2023-03-05T08:55:30.548Z,1.83
2023-03-05T08:58:01.703Z,1.80
2023-03-05T09:00:34.247Z,2.03
2023-03-05T09:03:06.042Z,2.20
2023-03-05T09:05:39.049Z,1.90
2023-03-05T09:08:12.940Z,1.73
2023-03-05T09:10:45.700Z,1.63
2023-03-05T09:13:14.053Z,2.13
2023-03-05T09:15:52.281Z,2.50
2023-03-05T09:18:24.142Z,1.40
2023-03-05T09:20:53.064Z,1.23
2023-03-05T09:23:26.565Z,1.17
2023-03-05T09:25:58.487Z,1.30
2023-03-05T09:28:29.491Z,2.07
2023-03-05T09:31:08.222Z,1.33
2023-03-05T09:33:43.905Z,1.10
2023-03-05T09:36:28.947Z,1.13
2023-03-05T09:39:13.505Z,1.23
2023-03-05T09:42:31.404Z,1.00
2023-03-05T09:45:29.728Z,1.10
2023-03-05T09:48:22.694Z,1.57
2023-03-05T09:51:06.515Z,0.90
2023-03-05T09:54:29.218Z,1.10
2023-03-05T09:57:04.702Z,1.10
2023-03-05T09:59:55.441Z,1.30
2023-03-05T10:02:56.258Z,1.20
2023-03-05T10:06:34.904Z,1.30
2023-03-05T10:09:23.049Z,1.00
2023-03-05T10:12:06.311Z,1.03
2023-03-05T10:14:57.220Z,1.20
2023-03-05T10:18:16.995Z,1.57
2023-03-05T10:25:16.314Z,0.83
2023-03-05T10:28:06.673Z,0.93
2023-03-05T10:30:56.247Z,1.00
2023-03-05T10:34:12.834Z,1.13
2023-03-05T10:37:23.652Z,0.90
2023-03-05T10:40:47.985Z,0.70
2023-03-05T10:44:05.302Z,0.97
2023-03-05T10:46:46.314Z,0.97
2023-03-05T10:49:51.599Z,1.07
2023-03-05T10:52:40.745Z,1.00
2023-03-05T10:55:22.810Z,1.10
2023-03-05T10:57:55.061Z,1.10
2023-03-05T11:00:34.857Z,1.00
2023-03-05T11:03:15.937Z,1.00
2023-03-05T11:06:14.234Z,0.93
2023-03-05T11:08:49.506Z,0.90
2023-03-05T11:11:43.900Z,0.80
2023-03-05T11:14:47.704Z,0.70
2023-03-05T11:21:15.440Z,0.90
2023-03-05T11:24:27.129Z,0.90
2023-03-05T11:27:06.174Z,0.70
2023-03-05T11:29:50.808Z,0.70
2023-03-05T11:33:08.865Z,0.63
2023-03-05T11:35:50.687Z,1.03
2023-03-05T11:38:29.761Z,0.80
2023-03-05T11:41:16.797Z,0.87
2023-03-05T11:43:46.632Z,1.03
2023-03-05T11:46:16.584Z,0.50
2023-03-05T11:48:54.575Z,0.60
2023-03-05T11:55:16.826Z,0.70
2023-03-05T11:58:39.471Z,0.50
2023-03-05T12:01:26.133Z,0.67
2023-03-05T12:04:23.345Z,0.77
2023-03-05T12:07:20.103Z,0.90
2023-03-05T12:09:57.386Z,0.60
2023-03-05T12:13:22.614Z,0.83
2023-03-05T12:16:33.907Z,0.93
2023-03-05T12:19:45.051Z,0.90
2023-03-05T12:22:54.288Z,0.60
2023-03-05T12:26:11.763Z,0.70
2023-03-05T12:32:34.553Z,1.00
2023-03-05T12:35:06.367Z,0.53
2023-03-05T12:37:36.772Z,0.60
2023-03-05T12:41:05.836Z,0.60
2023-03-05T12:44:06.291Z,0.70
2023-03-05T12:47:12.913Z,0.90
2023-03-05T12:49:47.375Z,0.90
2023-03-05T12:52:33.093Z,1.17
2023-03-05T12:55:43.581Z,0.80
2023-03-05T12:58:42.242Z,0.90
2023-03-05T13:01:54.813Z,0.73
2023-03-05T13:04:33.156Z,0.70
2023-03-05T13:07:27.963Z,0.50
2023-03-05T13:10:02.862Z,0.80
2023-03-05T13:12:46.006Z,0.37
2023-03-05T13:15:38.114Z,0.70
2023-03-05T13:18:39.734Z,0.60
2023-03-05T13:21:26.870Z,0.90
2023-03-05T13:24:13.778Z,0.60
2023-03-05T13:27:02.707Z,0.80
2023-03-05T13:29:42.235Z,0.70
2023-03-05T13:32:32.357Z,1.00
2023-03-05T13:35:05.375Z,0.60
2023-03-05T13:37:37.633Z,0.70
2023-03-05T13:40:18.161Z,0.90
2023-03-05T13:42:54.187Z,0.80
2023-03-05T13:45:45.554Z,0.80
2023-03-05T13:48:28.487Z,0.90
2023-03-05T13:50:59.318Z,0.80
2023-03-05T13:53:34.937Z,0.70
2023-03-05T13:56:12.932Z,1.00
2023-03-05T13:59:20.820Z,1.00
2023-03-05T14:02:17.016Z,1.17
2023-03-05T14:04:47.550Z,1.07
2023-03-05T14:07:41.163Z,1.00
2023-03-05T14:10:36.636Z,0.63
2023-03-05T14:13:33.634Z,1.30
2023-03-05T14:16:06.009Z,1.20
2023-03-05T14:18:35.459Z,0.97
2023-03-05T14:21:08.979Z,1.10
2023-03-05T14:23:53.018Z,0.67
2023-03-05T14:26:35.014Z,0.60
2023-03-05T14:29:12.278Z,1.00
2023-03-05T14:32:06.091Z,1.23
2023-03-05T14:35:06.359Z,1.23
2023-03-05T14:37:50.005Z,1.43
2023-03-05T14:40:34.335Z,1.80
2023-03-05T14:43:33.191Z,1.87
2023-03-05T14:46:07.970Z,1.40
2023-03-05T14:48:48.690Z,2.10
2023-03-05T14:51:24.165Z,1.93
2023-03-05T14:53:52.749Z,1.67
2023-03-05T14:56:37.130Z,2.13
2023-03-05T14:59:05.479Z,2.10
2023-03-05T15:01:45.675Z,1.80
2023-03-05T15:04:23.567Z,2.60
2023-03-05T15:06:54.444Z,2.57
2023-03-05T15:09:33.924Z,2.20
2023-03-05T15:12:03.156Z,2.47
2023-03-05T15:14:33.060Z,2.20
2023-03-05T15:17:04.337Z,1.57
2023-03-05T15:19:35.374Z,1.93
2023-03-05T15:22:20.746Z,2.23
2023-03-05T15:25:15.220Z,1.93
2023-03-05T15:27:43.663Z,2.30
2023-03-05T15:30:24.563Z,2.00
2023-03-05T15:32:59.331Z,2.00
2023-03-05T15:35:28.224Z,1.60
2023-03-05T15:38:11.202Z,1.80
2023-03-05T15:40:39.395Z,2.20
2023-03-05T15:43:10.291Z,1.70
2023-03-05T15:45:58.465Z,1.33
2023-03-05T15:48:28.694Z,1.67
2023-03-05T15:51:10.821Z,2.27
2023-03-05T15:53:51.463Z,2.50
2023-03-05T15:56:20.200Z,3.87
2023-03-05T15:58:51.342Z,1.60
2023-03-05T16:01:24.366Z,1.40
2023-03-05T16:04:00.908Z,1.50
2023-03-05T16:06:47.148Z,1.50
2023-03-05T16:09:48.373Z,1.53
2023-03-05T16:12:46.671Z,1.40
2023-03-05T16:16:12.048Z,1.80
2023-03-05T16:19:12.370Z,1.37
2023-03-05T16:21:52.262Z,2.40
2023-03-05T16:24:23.414Z,1.80
2023-03-05T16:27:08.684Z,2.43
2023-03-05T16:29:37.123Z,2.20
2023-03-05T16:32:15.517Z,2.10
2023-03-05T16:38:51.278Z,1.90
2023-03-05T16:42:15.632Z,1.70
2023-03-05T16:45:23.948Z,1.60
2023-03-05T16:48:00.064Z,1.47
2023-03-05T16:50:29.421Z,1.70
2023-03-05T16:53:21.028Z,1.50
2023-03-05T16:55:51.815Z,1.70
2023-03-05T16:58:26.880Z,2.10
2023-03-05T17:01:29.493Z,1.70
2023-03-05T17:04:57.665Z,2.03
2023-03-05T17:13:14.668Z,1.50
2023-03-05T17:15:56.257Z,1.50
2023-03-05T17:18:29.304Z,1.63
2023-03-05T17:27:09.303Z,1.77
2023-03-05T17:29:49.792Z,1.20
2023-03-05T17:32:48.642Z,2.10
2023-03-05T17:51:25.925Z,2.00
2023-03-05T17:54:08.364Z,1.97
2023-03-05T17:56:55.504Z,2.20
2023-03-05T18:00:55.200Z,2.17
2023-03-05T18:03:37.116Z,2.47
2023-03-05T18:06:18.865Z,5.70
2023-03-05T18:12:14.662Z,8.20
2023-03-05T18:14:56.033Z,6.33
2023-03-05T18:32:24.937Z,3.83
2023-03-05T18:39:51.874Z,3.77
2023-03-05T18:42:21.526Z,3.53
2023-03-05T18:45:49.146Z,3.33
2023-03-05T18:48:34.666Z,2.63
2023-03-05T18:51:11.334Z,2.20
2023-03-05T18:55:16.175Z,2.57
2023-03-05T18:57:27.253Z,2.20
2023-03-05T19:00:13.097Z,2.07
2023-03-05T19:02:54.502Z,2.40
2023-03-05T19:05:26.758Z,1.93
2023-03-05T19:28:58.983Z,2.10
2023-03-05T19:31:51.018Z,1.60
2023-03-05T19:34:22.830Z,2.00
2023-03-05T19:36:52.222Z,1.80
2023-03-05T19:39:26.587Z,1.87
2023-03-05T19:41:54.383Z,1.57
2023-03-05T19:44:25.958Z,1.50
2023-03-05T19:46:59.465Z,1.40
2023-03-05T19:49:28.130Z,1.47
2023-03-05T19:52:00.416Z,1.20
2023-03-05T19:54:31.185Z,1.40
2023-03-05T19:57:00.200Z,1.37
2023-03-05T19:59:33.994Z,1.40
2023-03-05T20:02:04.876Z,1.63
2023-03-05T20:04:35.040Z,1.90
2023-03-05T20:07:14.398Z,1.50
2023-03-05T20:09:45.014Z,1.40
2023-03-05T20:12:18.396Z,1.80
2023-03-05T20:14:46.574Z,1.87
2023-03-05T20:17:15.892Z,1.97
2023-03-05T20:19:47.027Z,1.60
2023-03-05T20:22:15.070Z,1.80
2023-03-05T20:24:54.637Z,1.50
2023-03-05T20:27:25.531Z,1.93
2023-03-05T20:29:59.646Z,2.07
2023-03-05T20:32:28.023Z,1.90
2023-03-05T20:34:56.259Z,2.13
2023-03-05T20:38:12.827Z,2.27
2023-03-05T20:40:41.012Z,2.00
2023-03-05T20:43:08.787Z,1.90
2023-03-05T20:45:36.805Z,2.30
2023-03-05T20:48:04.754Z,2.93
2023-03-05T20:50:33.805Z,3.23
2023-03-05T20:53:01.648Z,2.97
2023-03-05T20:55:30.776Z,3.43
2023-03-05T20:57:58.814Z,3.40
2023-03-05T21:00:27.339Z,3.63
2023-03-05T21:03:17.622Z,3.17
2023-03-05T21:05:52.585Z,3.60
2023-03-05T21:08:36.981Z,3.90
2023-03-05T21:11:11.363Z,3.70
2023-03-05T21:13:50.429Z,3.30
2023-03-05T21:16:36.395Z,3.57
2023-03-05T21:19:10.574Z,3.57
2023-03-05T21:21:45.726Z,3.87
2023-03-05T21:25:13.740Z,3.20
2023-03-05T21:27:43.839Z,4.00
2023-03-05T21:30:15.737Z,4.10
2023-03-05T21:32:48.313Z,3.90
2023-03-05T21:35:25.085Z,3.97
2023-03-05T21:38:02.283Z,4.23
2023-03-05T21:40:42.206Z,4.37
2023-03-05T21:43:14.220Z,3.77
2023-03-05T21:45:42.580Z,4.60
2023-03-05T21:48:10.569Z,4.07
2023-03-05T21:50:41.098Z,4.47
2023-03-05T21:53:09.844Z,4.80
2023-03-05T21:56:26.096Z,4.60
2023-03-05T21:58:59.671Z,4.30
2023-03-05T22:01:56.852Z,4.87
2023-03-05T22:04:25.062Z,4.90
2023-03-05T22:06:58.936Z,4.73
2023-03-05T22:09:29.124Z,5.27
2023-03-05T22:12:00.117Z,5.03
2023-03-05T22:14:30.946Z,4.93
2023-03-05T22:17:03.351Z,4.90
2023-03-05T22:19:31.508Z,5.03
2023-03-05T22:21:59.417Z,6.13
2023-03-05T22:24:30.114Z,5.30
2023-03-05T22:26:58.235Z,5.70
2023-03-05T22:29:28.252Z,5.60
2023-03-05T22:31:58.507Z,6.10
2023-03-05T22:34:29.389Z,6.27
2023-03-05T22:37:00.181Z,6.87
2023-03-05T22:39:28.038Z,6.13
2023-03-05T22:41:57.142Z,6.93
2023-03-05T22:44:29.158Z,7.23
2023-03-05T22:46:57.132Z,7.53
2023-03-05T22:49:26.637Z,7.73
2023-03-05T22:51:59.488Z,7.83
2023-03-05T22:54:27.272Z,6.90
2023-03-05T22:56:57.082Z,7.00
2023-03-05T22:59:33.768Z,7.07
2023-03-05T23:02:04.471Z,6.83
2023-03-05T23:04:55.011Z,6.90
2023-03-05T23:07:32.466Z,7.27
2023-03-05T23:10:25.618Z,6.60
2023-03-05T23:13:02.663Z,7.27
2023-03-05T23:15:36.773Z,7.43
2023-03-05T23:18:06.666Z,7.07
2023-03-05T23:20:59.986Z,6.33
2023-03-05T23:23:28.127Z,6.57
2023-03-05T23:26:08.734Z,6.67
2023-03-05T23:28:40.268Z,6.93
2023-03-05T23:31:09.079Z,5.37
2023-03-05T23:33:36.915Z,7.50
2023-03-05T23:36:09.983Z,6.07
2023-03-05T23:38:39.188Z,6.17
2023-03-05T23:41:10.889Z,7.10
2023-03-05T23:43:39.310Z,6.73
2023-03-05T23:46:11.654Z,7.60
2023-03-05T23:48:39.753Z,8.30
2023-03-05T23:51:09.678Z,7.50
2023-03-05T23:53:38.002Z,7.77
2023-03-05T23:56:11.620Z,8.30
2023-03-05T23:58:40.105Z,7.07
